Etusivu
METAR-TAF:

METAR-TAF

Lentoasemat :

Kittilä, Suomi

Kittilän lentoasema

Leveyspiiri: 67-42N, Pituuspiiri: 024-51E, korkeus merenpinnasta: 196 m

Tämänhetkinen sää

Tämä raportti tehtiin 12 tuntia ja 20 minuuttia sitten, kello 14.50 UTC
Tuuli 1 kn eri suunnista
Lämpötila -14°C
Kosteus 85%
Ilmanpaine 1028 hPa
Näkyvyys 10 km tai enemmän
ei pilviä alle 1500 m:ssä eikä cumulonimbus-pilviä

METAR: EFKT 201450Z VRB01KT CAVOK M14/M16 Q1028

Aika: 05:10 (03:10 UTC)

Sääennuste

Tämä raportti tehtiin 12 tuntia ja 46 minuuttia sitten, kello 14.24 UTC
Ennuste voimassa 20. päivästä klo 15 UTC - 20. päivään klo 23 UTC
Tuuli 3 kn pohjoisen/luoteesta
Näkyvyys 10 km tai enemmän
Hajonneita pilviä 3500 ft:n korkeudessa
Todennäköisyys 30%
20. päivästä klo 21 UTC - 20. päivään klo 23 UTC
Näkyvyys: 6000 m
Hajonneita pilviä 200 ft:n korkeudessa

TAF: EFKT 201424Z 2015/2023 34003KT 9999 BKN035 PROB30 2021/2023 6000 BKN002

Säähavainnot ja -ennusteet yli 4000 lentoasemalta (METAR- ja TAF-raportit).

Käytössä olevat sääasemat on merkitty karttaan keltaisilla ja punaisilla pisteillä.

Aseta hiiri pisteen päälle nähdäksesi sääaseman nimen.

Klikkaa sitten nähdäksesi säähavainnot ja -ennusteet.

Kartan vaihtaminen: klikkaa mustalla rastilla varustettuja vihreitä pisteitä, niin voit zoomata sisään; viivalla varustettua vihreää pistettä, niin voit zoomata ulos tai vihreitä nuolia, niin pääset viereisille kartoille.


METAR-TAF: